Time;durP1;ratioP1;P1;durP2;ratioP2;P2;SDS_P1;SDS_P2;PMS_P1;PMS_P2;Temp;Humidity;BMP_temperature;BMP_pressure;BME280_temperature;BME280_humidity;BME280_pressure;Samples;Min_cycle;Max_cycle;Signal;HPM_P1;HPM_P2
2023/08/29 00:00:20;;;;;;;;;;;;;;;;;;5053930;28;19916;-20
2023/08/29 00:02:46;;;;;;;;;;;;;;;;;;5054898;28;19909;-20
2023/08/29 00:05:12;;;;;;;;;;;;;;;;;;5054715;28;19978;-22
2023/08/29 00:07:38;;;;;;;;;;;;;;;;;;5054865;28;19986;-20
2023/08/29 00:10:04;;;;;;;;;;;;;;;;;;5054797;28;19913;-20
2023/08/29 00:12:31;;;;;;;;;;;;;;;;;;5054713;28;19967;-21
2023/08/29 00:14:57;;;;;;;;;;;;;;;;;;5054808;28;20362;-28
2023/08/29 00:17:23;;;;;;;;;;;;;;;;;;5055053;28;19909;-20
2023/08/29 00:19:49;;;;;;;;;;;;;;;;;;5053774;28;19920;-21
2023/08/29 00:22:15;;;;;;;;;;;;;;;;;;5054686;28;19920;-21
2023/08/29 00:24:44;;;;;;;;;;;;;;;;;;5054941;28;19979;-20
2023/08/29 00:27:09;;;;;;;;;;;;;;;;;;5054560;28;19917;-21
2023/08/29 00:29:35;;;;;;;;;;;;;;;;;;5054441;28;19908;-21
2023/08/29 00:32:01;;;;;;;;;;;;;;;;;;5054484;28;20009;-21
2023/08/29 00:34:27;;;;;;;;;;;;;;;;;;5054543;28;19916;-21
2023/08/29 00:36:53;;;;;;;;;;;;;;;;;;5054553;28;19909;-22
2023/08/29 00:39:19;;;;;;;;;;;;;;;;;;5054520;28;19995;-22
2023/08/29 00:41:48;;;;;;;;;;;;;;;;;;5055410;28;19927;-20
2023/08/29 00:44:14;;;;;;;;;;;;;;;;;;5054721;28;19908;-19
2023/08/29 00:46:41;;;;;;;;;;;;;;;;;;5054416;28;20335;-20
2023/08/29 00:49:07;;;;;;;;;;;;;;;;;;5054672;28;19942;-20
2023/08/29 00:51:33;;;;;;;;;;;;;;;;;;5053325;28;19966;-24
2023/08/29 00:54:00;;;;;;;;;;;;;;;;;;5055997;28;19915;-21
2023/08/29 00:56:26;;;;;;;;;;;;;;;;;;5058738;28;19909;-22
2023/08/29 00:58:52;;;;;;;;;;;;;;;;;;5058384;28;19916;-21
2023/08/29 01:01:18;;;;;;;;;;;;;;;;;;5058364;28;20000;-20
2023/08/29 01:03:44;;;;;;;;;;;;;;;;;;5057043;28;20025;-20
2023/08/29 01:06:11;;;;;;;;;;;;;;;;;;5057264;28;19917;-19
2023/08/29 01:08:37;;;;;;;;;;;;;;;;;;5057230;28;19919;-19
2023/08/29 01:11:03;;;;;;;;;;;;;;;;;;5058069;28;19913;-20
2023/08/29 01:13:29;;;;;;;;;;;;;;;;;;5057972;28;19913;-22
2023/08/29 01:15:55;;;;;;;;;;;;;;;;;;5058018;28;19909;-21
2023/08/29 01:18:21;;;;;;;;;;;;;;;;;;5058248;28;19935;-20
2023/08/29 01:20:47;;;;;;;;;;;;;;;;;;5057927;28;19909;-21
2023/08/29 01:23:13;;;;;;;;;;;;;;;;;;5057821;28;20000;-20
2023/08/29 01:25:39;;;;;;;;;;;;;;;;;;5057855;28;20290;-19
2023/08/29 01:28:05;;;;;;;;;;;;;;;;;;5057715;28;19916;-22
2023/08/29 01:30:30;;;;;;;;;;;;;;;;;;5057703;28;19973;-21
2023/08/29 01:32:58;;;;;;;;;;;;;;;;;;5057723;28;19992;-21
2023/08/29 01:35:24;;;;;;;;;;;;;;;;;;5056775;28;20252;-21
2023/08/29 01:37:50;;;;;;;;;;;;;;;;;;5057983;28;19909;-21
2023/08/29 01:40:16;;;;;;;;;;;;;;;;;;5056644;28;19971;-21
2023/08/29 01:42:42;;;;;;;;;;;;;;;;;;5057529;28;20279;-20
2023/08/29 01:45:08;;;;;;;;;;;;;;;;;;5057729;28;20334;-30
2023/08/29 01:47:34;;;;;;;;;;;;;;;;;;5057479;28;20395;-25
2023/08/29 01:50:00;;;;;;;;;;;;;;;;;;5057298;28;19960;-22
2023/08/29 01:52:26;;;;;;;;;;;;;;;;;;5057537;28;19919;-21
2023/08/29 01:54:52;;;;;;;;;;;;;;;;;;5057349;28;19912;-22
2023/08/29 01:57:18;;;;;;;;;;;;;;;;;;5057269;28;20343;-20
2023/08/29 01:59:44;;;;;;;;;;;;;;;;;;5057200;28;20011;-21
2023/08/29 02:02:10;;;;;;;;;;;;;;;;;;5057095;28;20263;-21
2023/08/29 02:04:35;;;;;;;;;;;;;;;;;;5056219;28;20259;-22
2023/08/29 02:07:01;;;;;;;;;;;;;;;;;;5057393;28;20328;-22
2023/08/29 02:09:27;;;;;;;;;;;;;;;;;;5057039;28;20295;-20
2023/08/29 02:11:55;;;;;;;;;;;;;;;;;;5057121;28;19964;-21
2023/08/29 02:14:21;;;;;;;;;;;;;;;;;;5056123;28;19912;-22
2023/08/29 02:16:47;;;;;;;;;;;;;;;;;;5057213;28;20012;-21
2023/08/29 02:19:13;;;;;;;;;;;;;;;;;;5056912;28;19909;-20
2023/08/29 02:21:39;;;;;;;;;;;;;;;;;;5056796;28;19905;-21
2023/08/29 02:24:04;;;;;;;;;;;;;;;;;;5055680;28;19956;-21
2023/08/29 02:26:30;;;;;;;;;;;;;;;;;;5055705;28;19905;-21
2023/08/29 02:28:56;;;;;;;;;;;;;;;;;;5056990;28;19959;-20
2023/08/29 02:31:22;;;;;;;;;;;;;;;;;;5056566;28;19955;-21
2023/08/29 02:33:48;;;;;;;;;;;;;;;;;;5056528;28;19916;-21
2023/08/29 02:36:14;;;;;;;;;;;;;;;;;;5056770;28;19908;-20
2023/08/29 02:38:40;;;;;;;;;;;;;;;;;;5056540;28;19958;-21
2023/08/29 02:41:06;;;;;;;;;;;;;;;;;;5056683;28;19916;-23
2023/08/29 02:43:32;;;;;;;;;;;;;;;;;;5056320;28;20000;-20
2023/08/29 02:45:58;;;;;;;;;;;;;;;;;;5056416;28;19960;-22
2023/08/29 02:48:24;;;;;;;;;;;;;;;;;;5056343;28;20005;-21
2023/08/29 02:50:50;;;;;;;;;;;;;;;;;;5056492;28;19912;-20
2023/08/29 02:53:16;;;;;;;;;;;;;;;;;;5055209;28;19999;-20
2023/08/29 02:55:42;;;;;;;;;;;;;;;;;;5055190;28;20269;-21
2023/08/29 02:58:08;;;;;;;;;;;;;;;;;;5055164;28;19920;-22
2023/08/29 03:00:35;;;;;;;;;;;;;;;;;;5056044;28;19909;-21
2023/08/29 03:03:01;;;;;;;;;;;;;;;;;;5055858;28;19985;-22
2023/08/29 03:05:27;;;;;;;;;;;;;;;;;;5056003;28;19981;-21
2023/08/29 03:07:54;;;;;;;;;;;;;;;;;;5055929;28;19919;-21
2023/08/29 03:10:20;;;;;;;;;;;;;;;;;;5055998;28;19960;-21
2023/08/29 03:12:46;;;;;;;;;;;;;;;;;;5055723;28;19920;-25
2023/08/29 03:15:13;;;;;;;;;;;;;;;;;;5055983;28;19916;-20
2023/08/29 03:17:39;;;;;;;;;;;;;;;;;;5053709;28;20002;-20
2023/08/29 03:20:05;;;;;;;;;;;;;;;;;;5055701;28;19967;-20
2023/08/29 03:22:31;;;;;;;;;;;;;;;;;;5055785;28;19909;-22
2023/08/29 03:24:57;;;;;;;;;;;;;;;;;;5055689;28;19928;-20
2023/08/29 03:27:23;;;;;;;;;;;;;;;;;;5055587;28;19944;-22
2023/08/29 03:29:49;;;;;;;;;;;;;;;;;;5055508;28;20283;-21
2023/08/29 03:32:15;;;;;;;;;;;;;;;;;;5055614;28;20347;-20
2023/08/29 03:34:41;;;;;;;;;;;;;;;;;;5055581;28;20239;-22
2023/08/29 03:37:07;;;;;;;;;;;;;;;;;;5055485;28;20248;-21
2023/08/29 03:39:33;;;;;;;;;;;;;;;;;;5055515;28;20248;-22
2023/08/29 03:41:59;;;;;;;;;;;;;;;;;;5055078;28;19958;-22
2023/08/29 03:44:25;;;;;;;;;;;;;;;;;;5055495;28;19948;-21
2023/08/29 03:46:51;;;;;;;;;;;;;;;;;;5055062;28;19916;-22
2023/08/29 03:49:17;;;;;;;;;;;;;;;;;;5053961;28;20367;-20
2023/08/29 03:51:43;;;;;;;;;;;;;;;;;;5054867;28;20364;-21
2023/08/29 03:54:09;;;;;;;;;;;;;;;;;;5054817;28;19909;-23
2023/08/29 03:56:35;;;;;;;;;;;;;;;;;;5054846;28;20354;-21
2023/08/29 03:59:03;;;;;;;;;;;;;;;;;;5054845;28;19909;-21
2023/08/29 04:01:29;;;;;;;;;;;;;;;;;;5055013;28;19909;-22
2023/08/29 04:03:55;;;;;;;;;;;;;;;;;;5054587;28;19927;-20
2023/08/29 04:06:21;;;;;;;;;;;;;;;;;;5054585;28;20272;-23
2023/08/29 04:08:47;;;;;;;;;;;;;;;;;;5054761;28;20309;-21
2023/08/29 04:11:13;;;;;;;;;;;;;;;;;;5054532;28;19924;-20
2023/08/29 04:13:39;;;;;;;;;;;;;;;;;;5054174;28;20324;-21
2023/08/29 04:16:05;;;;;;;;;;;;;;;;;;5053108;28;19909;-20
2023/08/29 04:18:31;;;;;;;;;;;;;;;;;;5054263;28;19963;-22
2023/08/29 04:20:58;;;;;;;;;;;;;;;;;;5054572;28;20318;-21
2023/08/29 04:23:24;;;;;;;;;;;;;;;;;;5053125;28;19909;-21
2023/08/29 04:25:50;;;;;;;;;;;;;;;;;;5054167;28;19920;-22
2023/08/29 04:28:20;;;;;;;;;;;;;;;;;;5054018;28;19913;-20
2023/08/29 04:30:46;;;;;;;;;;;;;;;;;;5054477;28;19912;-20
2023/08/29 04:33:12;;;;;;;;;;;;;;;;;;5054198;28;20262;-22
2023/08/29 04:35:38;;;;;;;;;;;;;;;;;;5054604;28;19919;-21
2023/08/29 04:38:04;;;;;;;;;;;;;;;;;;5053247;28;20016;-20
2023/08/29 04:40:29;;;;;;;;;;;;;;;;;;5053085;28;19916;-21
2023/08/29 04:42:55;;;;;;;;;;;;;;;;;;5054010;28;19991;-22
2023/08/29 04:45:23;;;;;;;;;;;;;;;;;;5054179;28;20401;-21
2023/08/29 04:47:49;;;;;;;;;;;;;;;;;;5054258;28;19963;-21
2023/08/29 04:50:15;;;;;;;;;;;;;;;;;;5054343;28;20331;-21
2023/08/29 04:52:41;;;;;;;;;;;;;;;;;;5054303;28;20340;-22
2023/08/29 04:55:07;;;;;;;;;;;;;;;;;;5053193;28;19916;-26
2023/08/29 04:57:33;;;;;;;;;;;;;;;;;;5053264;28;19962;-21
2023/08/29 05:00:00;;;;;;;;;;;;;;;;;;5054171;28;19928;-22
2023/08/29 05:02:26;;;;;;;;;;;;;;;;;;5054321;28;20251;-21
2023/08/29 05:04:55;;;;;;;;;;;;;;;;;;5054141;28;19931;-21
2023/08/29 05:07:21;;;;;;;;;;;;;;;;;;5054229;28;19928;-20
2023/08/29 05:09:47;;;;;;;;;;;;;;;;;;5052750;28;19909;-21
2023/08/29 05:12:13;;;;;;;;;;;;;;;;;;5053740;28;19909;-19
2023/08/29 05:14:39;;;;;;;;;;;;;;;;;;5053828;28;19909;-22
2023/08/29 05:17:05;;;;;;;;;;;;;;;;;;5054060;28;19916;-22
2023/08/29 05:19:30;;;;;;;;;;;;;;;;;;5054051;28;19965;-20
2023/08/29 05:21:57;;;;;;;;;;;;;;;;;;5052856;28;20037;-23
2023/08/29 05:24:23;;;;;;;;;;;;;;;;;;5053643;28;19913;-21
2023/08/29 05:26:49;;;;;;;;;;;;;;;;;;5053686;28;20401;-20
2023/08/29 05:29:15;;;;;;;;;;;;;;;;;;5052958;28;19986;-20
2023/08/29 05:31:40;;;;;;;;;;;;;;;;;;5053751;28;19913;-20
2023/08/29 05:34:07;;;;;;;;;;;;;;;;;;5053885;28;19920;-23
2023/08/29 05:36:33;;;;;;;;;;;;;;;;;;5053732;28;19956;-22
2023/08/29 05:38:58;;;;;;;;;;;;;;;;;;5053685;28;19997;-21
2023/08/29 05:41:24;;;;;;;;;;;;;;;;;;5056780;28;19958;-20
2023/08/29 05:43:50;;;;;;;;;;;;;;;;;;5056034;28;19908;-21
2023/08/29 05:46:16;;;;;;;;;;;;;;;;;;5056014;28;19909;-21
2023/08/29 05:48:42;;;;;;;;;;;;;;;;;;5057141;28;20379;-22
2023/08/29 05:51:08;;;;;;;;;;;;;;;;;;5057223;28;19925;-21
2023/08/29 05:53:34;;;;;;;;;;;;;;;;;;5055855;28;19908;-22
2023/08/29 05:56:00;;;;;;;;;;;;;;;;;;5055803;28;19939;-21
2023/08/29 05:58:26;;;;;;;;;;;;;;;;;;5055818;28;19927;-19
2023/08/29 06:00:52;;;;;;;;;;;;;;;;;;5056547;28;20323;-24
2023/08/29 06:03:18;;;;;;;;;;;;;;;;;;5056388;28;19923;-21
2023/08/29 06:05:44;;;;;;;;;;;;;;;;;;5056704;28;19920;-21
2023/08/29 06:08:11;;;;;;;;;;;;;;;;;;5056893;28;19948;-21
2023/08/29 06:10:37;;;;;;;;;;;;;;;;;;5056887;28;19999;-21
2023/08/29 06:13:03;;;;;;;;;;;;;;;;;;5056083;28;20005;-21
2023/08/29 06:15:29;;;;;;;;;;;;;;;;;;5054845;28;19909;-20
2023/08/29 06:17:54;;;;;;;;;;;;;;;;;;5055741;28;20405;-21
2023/08/29 06:20:20;;;;;;;;;;;;;;;;;;5055608;28;19909;-22
2023/08/29 06:22:46;;;;;;;;;;;;;;;;;;5055613;28;19909;-21
2023/08/29 06:25:12;;;;;;;;;;;;;;;;;;5055939;28;19921;-20
2023/08/29 06:27:38;;;;;;;;;;;;;;;;;;5055690;28;19953;-20
2023/08/29 06:30:07;;;;;;;;;;;;;;;;;;5055496;28;19909;-20
2023/08/29 06:32:33;;;;;;;;;;;;;;;;;;5055449;28;19928;-20
2023/08/29 06:34:59;;;;;;;;;;;;;;;;;;5055651;28;19909;-19
2023/08/29 06:37:25;;;;;;;;;;;;;;;;;;5054903;28;19953;-22
2023/08/29 06:39:51;;;;;;;;;;;;;;;;;;5056236;28;20355;-21
2023/08/29 06:42:17;;;;;;;;;;;;;;;;;;5055892;28;19936;-19
2023/08/29 06:44:43;;;;;;;;;;;;;;;;;;5055884;28;19909;-20
2023/08/29 06:47:09;;;;;;;;;;;;;;;;;;5055841;28;19916;-20
2023/08/29 06:49:35;;;;;;;;;;;;;;;;;;5056063;28;19909;-21
2023/08/29 06:52:01;;;;;;;;;;;;;;;;;;5055469;28;19913;-21
2023/08/29 06:54:28;;;;;;;;;;;;;;;;;;5055602;28;19915;-22
2023/08/29 06:56:54;;;;;;;;;;;;;;;;;;5055460;28;20018;-22
2023/08/29 06:59:20;;;;;;;;;;;;;;;;;;5055694;28;20278;-22
2023/08/29 07:01:46;;;;;;;;;;;;;;;;;;5055457;28;20356;-22
2023/08/29 07:04:12;;;;;;;;;;;;;;;;;;5055291;28;20359;-19
2023/08/29 07:06:39;;;;;;;;;;;;;;;;;;5055627;28;19916;-20
2023/08/29 07:09:05;;;;;;;;;;;;;;;;;;5055692;28;20353;-19
2023/08/29 07:11:31;;;;;;;;;;;;;;;;;;5055266;28;19913;-22
2023/08/29 07:13:57;;;;;;;;;;;;;;;;;;5055535;28;19958;-22
2023/08/29 07:16:23;;;;;;;;;;;;;;;;;;5054332;28;20335;-21
2023/08/29 07:18:49;;;;;;;;;;;;;;;;;;5055374;28;19909;-22
2023/08/29 07:21:16;;;;;;;;;;;;;;;;;;5055129;28;20054;-20
2023/08/29 07:23:42;;;;;;;;;;;;;;;;;;5054851;28;19913;-21
2023/08/29 07:26:08;;;;;;;;;;;;;;;;;;5054838;28;19990;-19
2023/08/29 07:28:34;;;;;;;;;;;;;;;;;;5054963;28;19908;-20
2023/08/29 07:31:00;;;;;;;;;;;;;;;;;;5055051;28;19962;-20
2023/08/29 07:33:26;;;;;;;;;;;;;;;;;;5053891;28;19914;-22
2023/08/29 07:35:53;;;;;;;;;;;;;;;;;;5054781;28;19912;-22
2023/08/29 07:38:19;;;;;;;;;;;;;;;;;;5055251;28;20000;-21
2023/08/29 07:40:48;;;;;;;;;;;;;;;;;;5055246;28;19944;-22
2023/08/29 07:43:14;;;;;;;;;;;;;;;;;;5054103;28;19996;-21
2023/08/29 07:45:40;;;;;;;;;;;;;;;;;;5054462;28;20307;-21
2023/08/29 07:48:06;;;;;;;;;;;;;;;;;;5054517;28;19916;-20
2023/08/29 07:50:32;;;;;;;;;;;;;;;;;;5054796;28;19916;-20
2023/08/29 07:52:58;;;;;;;;;;;;;;;;;;5053258;28;19909;-19
2023/08/29 07:55:24;;;;;;;;;;;;;;;;;;5054954;28;19919;-22
2023/08/29 07:57:50;;;;;;;;;;;;;;;;;;5054677;28;20027;-21
2023/08/29 08:00:16;;;;;;;;;;;;;;;;;;5054431;28;19916;-23
2023/08/29 08:02:42;;;;;;;;;;;;;;;;;;5054335;28;20250;-21
2023/08/29 08:05:08;;;;;;;;;;;;;;;;;;5054367;28;19975;-21
2023/08/29 08:07:34;;;;;;;;;;;;;;;;;;5054964;28;20277;-20
2023/08/29 08:10:00;;;;;;;;;;;;;;;;;;5054529;28;20301;-22
2023/08/29 08:12:26;;;;;;;;;;;;;;;;;;5054796;28;20308;-21
2023/08/29 08:14:53;;;;;;;;;;;;;;;;;;5054466;28;19921;-26
2023/08/29 08:17:19;;;;;;;;;;;;;;;;;;5054296;28;20000;-20
2023/08/29 08:19:45;;;;;;;;;;;;;;;;;;5054435;28;20389;-20
2023/08/29 08:22:11;;;;;;;;;;;;;;;;;;5054205;28;20229;-22
2023/08/29 08:24:37;;;;;;;;;;;;;;;;;;5054101;28;19994;-23
2023/08/29 08:27:05;;;;;;;;;;;;;;;;;;5054278;28;20225;-22
2023/08/29 08:29:31;;;;;;;;;;;;;;;;;;5054252;28;19909;-21
2023/08/29 08:31:57;;;;;;;;;;;;;;;;;;5054272;28;19912;-21
2023/08/29 08:34:23;;;;;;;;;;;;;;;;;;5054735;28;19952;-21
2023/08/29 08:36:49;;;;;;;;;;;;;;;;;;5054434;28;19905;-20
2023/08/29 08:39:15;;;;;;;;;;;;;;;;;;5054359;28;20288;-22
2023/08/29 08:41:41;;;;;;;;;;;;;;;;;;5054507;28;20350;-22
2023/08/29 08:44:07;;;;;;;;;;;;;;;;;;5053951;28;20363;-22
2023/08/29 08:46:33;;;;;;;;;;;;;;;;;;5052784;28;19916;-21
2023/08/29 08:48:59;;;;;;;;;;;;;;;;;;5054198;28;19909;-19
2023/08/29 08:51:24;;;;;;;;;;;;;;;;;;5054008;28;19912;-22
2023/08/29 08:53:50;;;;;;;;;;;;;;;;;;5053663;28;19909;-20
2023/08/29 08:56:16;;;;;;;;;;;;;;;;;;5053725;28;20399;-21
2023/08/29 08:58:42;;;;;;;;;;;;;;;;;;5053857;28;19913;-19
2023/08/29 09:01:08;;;;;;;;;;;;;;;;;;5053941;28;19999;-20
2023/08/29 09:03:35;;;;;;;;;;;;;;;;;;5053447;28;19921;-21
2023/08/29 09:06:01;;;;;;;;;;;;;;;;;;5052673;28;19909;-22
2023/08/29 09:08:31;;;;;;;;;;;;;;;;;;5054066;28;20000;-21
2023/08/29 09:10:57;;;;;;;;;;;;;;;;;;5053941;28;20018;-20
2023/08/29 09:13:23;;;;;;;;;;;;;;;;;;5053644;28;19913;-21
2023/08/29 09:15:49;;;;;;;;;;;;;;;;;;5054889;28;19956;-22
2023/08/29 09:18:15;;;;;;;;;;;;;;;;;;5057593;28;19960;-21
2023/08/29 09:20:41;;;;;;;;;;;;;;;;;;5057412;28;19961;-21
2023/08/29 09:23:07;;;;;;;;;;;;;;;;;;5057250;28;20330;-20
2023/08/29 09:25:33;;;;;;;;;;;;;;;;;;5057222;28;19966;-20
2023/08/29 09:27:59;;;;;;;;;;;;;;;;;;5057406;28;19908;-23
2023/08/29 09:30:25;;;;;;;;;;;;;;;;;;5056171;28;19913;-23
2023/08/29 09:32:51;;;;;;;;;;;;;;;;;;5056284;28;19920;-21
2023/08/29 09:35:19;;;;;;;;;;;;;;;;;;5057315;28;20276;-21
2023/08/29 09:37:46;;;;;;;;;;;;;;;;;;5057247;28;19908;-21
2023/08/29 09:40:12;;;;;;;;;;;;;;;;;;5056070;28;20029;-22
2023/08/29 09:42:38;;;;;;;;;;;;;;;;;;5056023;28;19909;-20
2023/08/29 09:45:06;;;;;;;;;;;;;;;;;;5057093;28;19924;-20
2023/08/29 09:47:32;;;;;;;;;;;;;;;;;;5057332;28;19913;-21
2023/08/29 09:49:58;;;;;;;;;;;;;;;;;;5056934;28;19916;-22
2023/08/29 09:52:24;;;;;;;;;;;;;;;;;;5055934;28;19966;-27
2023/08/29 09:54:50;;;;;;;;;;;;;;;;;;5057259;28;19909;-23
2023/08/29 09:57:18;;;;;;;;;;;;;;;;;;5057053;28;19919;-22
2023/08/29 09:59:44;;;;;;;;;;;;;;;;;;5057005;28;19999;-21
2023/08/29 10:02:13;;;;;;;;;;;;;;;;;;5057021;28;19955;-23
2023/08/29 10:04:39;;;;;;;;;;;;;;;;;;5056639;28;20020;-20
2023/08/29 10:07:05;;;;;;;;;;;;;;;;;;5056424;28;19967;-22
2023/08/29 10:09:31;;;;;;;;;;;;;;;;;;5055335;28;20343;-22
2023/08/29 10:11:57;;;;;;;;;;;;;;;;;;5056364;28;19912;-22
2023/08/29 10:14:23;;;;;;;;;;;;;;;;;;5055267;28;19919;-19
2023/08/29 10:16:49;;;;;;;;;;;;;;;;;;5055277;28;19911;-20
2023/08/29 10:19:15;;;;;;;;;;;;;;;;;;5055131;28;20246;-22
2023/08/29 10:21:42;;;;;;;;;;;;;;;;;;5056106;28;19916;-21
2023/08/29 10:24:08;;;;;;;;;;;;;;;;;;5055024;28;19909;-22
2023/08/29 10:26:34;;;;;;;;;;;;;;;;;;5055756;28;19999;-22
2023/08/29 10:29:00;;;;;;;;;;;;;;;;;;5056155;28;19920;-22
2023/08/29 10:31:26;;;;;;;;;;;;;;;;;;5055976;28;20304;-20
2023/08/29 10:33:52;;;;;;;;;;;;;;;;;;5055910;28;20253;-20
2023/08/29 10:36:18;;;;;;;;;;;;;;;;;;5055079;28;19955;-22
2023/08/29 10:38:44;;;;;;;;;;;;;;;;;;5054774;28;20351;-22
2023/08/29 10:41:11;;;;;;;;;;;;;;;;;;5055751;28;20367;-22
2023/08/29 10:43:37;;;;;;;;;;;;;;;;;;5055488;28;19908;-21
2023/08/29 10:46:03;;;;;;;;;;;;;;;;;;5054631;28;19909;-21
2023/08/29 10:48:32;;;;;;;;;;;;;;;;;;5055430;28;19909;-21
2023/08/29 10:50:58;;;;;;;;;;;;;;;;;;5055535;28;20324;-20
2023/08/29 10:53:24;;;;;;;;;;;;;;;;;;5055762;28;19928;-21
2023/08/29 10:55:50;;;;;;;;;;;;;;;;;;5055308;28;20028;-19
2023/08/29 10:58:16;;;;;;;;;;;;;;;;;;5054927;28;20256;-20
2023/08/29 11:00:42;;;;;;;;;;;;;;;;;;5054720;28;20027;-22
2023/08/29 11:03:08;;;;;;;;;;;;;;;;;;5054427;28;20064;-24
2023/08/29 11:05:34;;;;;;;;;;;;;;;;;;5054984;28;20004;-20
2023/08/29 11:08:00;;;;;;;;;;;;;;;;;;5053694;28;19909;-20
2023/08/29 11:10:26;;;;;;;;;;;;;;;;;;5054600;28;20012;-21
2023/08/29 11:12:52;;;;;;;;;;;;;;;;;;5054579;28;19909;-21
2023/08/29 11:15:17;;;;;;;;;;;;;;;;;;5054499;28;19920;-22
2023/08/29 11:17:43;;;;;;;;;;;;;;;;;;5054527;28;19919;-21
2023/08/29 11:20:13;;;;;;;;;;;;;;;;;;5053437;28;19935;-21
2023/08/29 11:22:39;;;;;;;;;;;;;;;;;;5054425;28;19912;-20
2023/08/29 11:25:06;;;;;;;;;;;;;;;;;;5054884;28;19928;-21
2023/08/29 11:27:32;;;;;;;;;;;;;;;;;;5055555;28;20007;-21
2023/08/29 11:29:59;;;;;;;;;;;;;;;;;;5054993;28;20263;-21
2023/08/29 11:32:25;;;;;;;;;;;;;;;;;;5055173;28;20370;-22
2023/08/29 11:34:54;;;;;;;;;;;;;;;;;;5055170;28;19908;-20
2023/08/29 11:37:25;;;;;;;;;;;;;;;;;;5053210;28;20195;-20
2023/08/29 11:39:51;;;;;;;;;;;;;;;;;;5053688;28;20334;-22
2023/08/29 11:42:16;;;;;;;;;;;;;;;;;;5053921;28;19905;-22
2023/08/29 11:44:42;;;;;;;;;;;;;;;;;;5055389;28;19927;-20
2023/08/29 11:47:08;;;;;;;;;;;;;;;;;;5055033;28;19904;-20
2023/08/29 11:49:34;;;;;;;;;;;;;;;;;;5054867;28;20004;-24
2023/08/29 11:52:00;;;;;;;;;;;;;;;;;;5054387;28;19925;-21
2023/08/29 11:54:27;;;;;;;;;;;;;;;;;;5054260;28;19909;-22
2023/08/29 11:56:53;;;;;;;;;;;;;;;;;;5054674;28;20284;-34
2023/08/29 11:59:19;;;;;;;;;;;;;;;;;;5054542;28;19981;-20
2023/08/29 12:01:45;;;;;;;;;;;;;;;;;;5054765;28;19912;-22
2023/08/29 12:04:11;;;;;;;;;;;;;;;;;;5054089;28;19927;-22
2023/08/29 12:06:37;;;;;;;;;;;;;;;;;;5054065;28;19992;-21
2023/08/29 12:09:03;;;;;;;;;;;;;;;;;;5054239;28;19909;-21
2023/08/29 12:11:29;;;;;;;;;;;;;;;;;;5054452;28;19954;-21
2023/08/29 12:13:55;;;;;;;;;;;;;;;;;;5054219;28;19909;-20
2023/08/29 12:16:21;;;;;;;;;;;;;;;;;;5054450;28;19909;-21
2023/08/29 12:18:47;;;;;;;;;;;;;;;;;;5054239;28;19912;-22
2023/08/29 12:21:13;;;;;;;;;;;;;;;;;;5054497;28;19909;-20
2023/08/29 12:23:39;;;;;;;;;;;;;;;;;;5053320;28;19967;-22
2023/08/29 12:26:05;;;;;;;;;;;;;;;;;;5052901;28;19913;-21
2023/08/29 12:28:31;;;;;;;;;;;;;;;;;;5054084;28;20300;-19
2023/08/29 12:30:57;;;;;;;;;;;;;;;;;;5054000;28;19912;-19
2023/08/29 12:33:23;;;;;;;;;;;;;;;;;;5054300;28;19967;-22
2023/08/29 12:35:50;;;;;;;;;;;;;;;;;;5054073;28;19909;-21
2023/08/29 12:38:16;;;;;;;;;;;;;;;;;;5054188;28;19920;-21
2023/08/29 12:40:42;;;;;;;;;;;;;;;;;;5054055;28;20217;-21
2023/08/29 12:43:09;;;;;;;;;;;;;;;;;;5052295;28;19909;-20
2023/08/29 12:45:35;;;;;;;;;;;;;;;;;;5053895;28;19909;-20
2023/08/29 12:48:02;;;;;;;;;;;;;;;;;;5053910;28;19920;-20
2023/08/29 12:50:28;;;;;;;;;;;;;;;;;;5057427;28;19913;-20
2023/08/29 12:52:54;;;;;;;;;;;;;;;;;;5058031;28;20432;-22
2023/08/29 12:55:20;;;;;;;;;;;;;;;;;;5056897;28;20232;-26
2023/08/29 12:57:48;;;;;;;;;;;;;;;;;;5056786;28;19909;-21
2023/08/29 13:00:14;;;;;;;;;;;;;;;;;;5057938;28;19909;-21
2023/08/29 13:02:40;;;;;;;;;;;;;;;;;;5057649;28;20260;-21
2023/08/29 13:05:06;;;;;;;;;;;;;;;;;;5057876;28;20353;-20
2023/08/29 13:07:32;;;;;;;;;;;;;;;;;;5058173;28;20271;-20
2023/08/29 13:09:58;;;;;;;;;;;;;;;;;;5058112;28;19913;-20
2023/08/29 13:12:24;;;;;;;;;;;;;;;;;;5057722;28;20339;-22
2023/08/29 13:14:50;;;;;;;;;;;;;;;;;;5057858;28;20316;-22
2023/08/29 13:17:16;;;;;;;;;;;;;;;;;;5057787;28;20259;-21
2023/08/29 13:19:42;;;;;;;;;;;;;;;;;;5056912;28;20016;-20
2023/08/29 13:22:08;;;;;;;;;;;;;;;;;;5057825;28;19955;-20
2023/08/29 13:24:34;;;;;;;;;;;;;;;;;;5057432;28;20346;-20
2023/08/29 13:27:00;;;;;;;;;;;;;;;;;;5057610;28;20376;-22
2023/08/29 13:29:26;;;;;;;;;;;;;;;;;;5056428;28;19920;-20
2023/08/29 13:31:52;;;;;;;;;;;;;;;;;;5057405;28;19924;-20
2023/08/29 13:34:18;;;;;;;;;;;;;;;;;;5057770;28;19916;-21
2023/08/29 13:36:44;;;;;;;;;;;;;;;;;;5057468;28;19958;-21
2023/08/29 13:39:10;;;;;;;;;;;;;;;;;;5057415;28;19998;-21
2023/08/29 13:41:36;;;;;;;;;;;;;;;;;;5057581;28;20323;-21
2023/08/29 13:44:04;;;;;;;;;;;;;;;;;;5057448;28;19966;-21
2023/08/29 13:46:30;;;;;;;;;;;;;;;;;;5057155;28;19905;-20
2023/08/29 13:48:56;;;;;;;;;;;;;;;;;;5056289;28;20017;-20
2023/08/29 13:51:22;;;;;;;;;;;;;;;;;;5057336;28;20035;-21
2023/08/29 13:53:48;;;;;;;;;;;;;;;;;;5057046;28;19921;-21
2023/08/29 13:56:14;;;;;;;;;;;;;;;;;;5055867;28;19970;-21
2023/08/29 13:58:40;;;;;;;;;;;;;;;;;;5057308;28;20286;-22
2023/08/29 14:01:06;;;;;;;;;;;;;;;;;;5056097;28;20267;-22
2023/08/29 14:03:32;;;;;;;;;;;;;;;;;;5056880;28;20389;-21
2023/08/29 14:05:59;;;;;;;;;;;;;;;;;;5056140;28;19948;-21
2023/08/29 14:08:24;;;;;;;;;;;;;;;;;;5057116;28;19913;-20
2023/08/29 14:10:50;;;;;;;;;;;;;;;;;;5056718;28;19929;-21
2023/08/29 14:13:16;;;;;;;;;;;;;;;;;;5056593;28;19909;-20
2023/08/29 14:15:42;;;;;;;;;;;;;;;;;;5056666;28;19924;-23
2023/08/29 14:18:08;;;;;;;;;;;;;;;;;;5056809;28;20403;-20
2023/08/29 14:20:34;;;;;;;;;;;;;;;;;;5056809;28;19912;-22
2023/08/29 14:23:01;;;;;;;;;;;;;;;;;;5055544;28;19943;-21
2023/08/29 14:25:27;;;;;;;;;;;;;;;;;;5055623;28;19919;-20
2023/08/29 14:27:56;;;;;;;;;;;;;;;;;;5056913;28;20004;-21
2023/08/29 14:30:22;;;;;;;;;;;;;;;;;;5056415;28;19915;-21
2023/08/29 14:32:48;;;;;;;;;;;;;;;;;;5055316;28;19913;-21
2023/08/29 14:35:14;;;;;;;;;;;;;;;;;;5056639;28;19999;-21
2023/08/29 14:37:40;;;;;;;;;;;;;;;;;;5056344;28;19920;-20
2023/08/29 14:40:06;;;;;;;;;;;;;;;;;;5056711;28;19909;-21
2023/08/29 14:42:31;;;;;;;;;;;;;;;;;;5056138;28;19932;-21
2023/08/29 14:44:59;;;;;;;;;;;;;;;;;;5056345;28;20336;-22
2023/08/29 14:47:26;;;;;;;;;;;;;;;;;;5056241;28;20009;-22
2023/08/29 14:49:51;;;;;;;;;;;;;;;;;;5056600;28;19909;-20
2023/08/29 14:52:17;;;;;;;;;;;;;;;;;;5056054;28;19928;-21
2023/08/29 14:54:43;;;;;;;;;;;;;;;;;;5055849;28;19920;-22
2023/08/29 14:57:09;;;;;;;;;;;;;;;;;;5056027;28;20004;-20
2023/08/29 14:59:36;;;;;;;;;;;;;;;;;;5055791;28;19916;-21
2023/08/29 15:02:03;;;;;;;;;;;;;;;;;;5055903;28;20251;-21
2023/08/29 15:04:29;;;;;;;;;;;;;;;;;;5055567;28;19920;-22
2023/08/29 15:06:55;;;;;;;;;;;;;;;;;;5055929;28;19916;-22
2023/08/29 15:09:21;;;;;;;;;;;;;;;;;;5055745;28;19958;-23
2023/08/29 15:11:47;;;;;;;;;;;;;;;;;;5055628;28;19913;-22
2023/08/29 15:14:13;;;;;;;;;;;;;;;;;;5055065;28;19913;-22
2023/08/29 15:16:39;;;;;;;;;;;;;;;;;;5053935;28;19905;-20
2023/08/29 15:19:05;;;;;;;;;;;;;;;;;;5055091;28;19915;-21
2023/08/29 15:21:31;;;;;;;;;;;;;;;;;;5054880;28;19905;-20
2023/08/29 15:23:57;;;;;;;;;;;;;;;;;;5054665;28;19943;-21
2023/08/29 15:26:23;;;;;;;;;;;;;;;;;;5053645;28;19905;-21
2023/08/29 15:28:49;;;;;;;;;;;;;;;;;;5054922;28;20031;-22
2023/08/29 15:31:15;;;;;;;;;;;;;;;;;;5053444;28;20255;-21
2023/08/29 15:33:42;;;;;;;;;;;;;;;;;;5054573;28;19908;-21
2023/08/29 15:36:08;;;;;;;;;;;;;;;;;;5053936;28;19919;-20
2023/08/29 15:38:34;;;;;;;;;;;;;;;;;;5055301;28;20423;-20
2023/08/29 15:41:00;;;;;;;;;;;;;;;;;;5055386;28;20453;-21
2023/08/29 15:43:26;;;;;;;;;;;;;;;;;;5054164;28;20224;-21
2023/08/29 15:45:52;;;;;;;;;;;;;;;;;;5055279;28;20378;-21
2023/08/29 15:48:18;;;;;;;;;;;;;;;;;;5055162;28;19913;-21
2023/08/29 15:50:44;;;;;;;;;;;;;;;;;;5055213;28;20007;-19
2023/08/29 15:53:10;;;;;;;;;;;;;;;;;;5053814;28;19913;-21
2023/08/29 15:55:36;;;;;;;;;;;;;;;;;;5055014;28;19909;-22
2023/08/29 15:58:03;;;;;;;;;;;;;;;;;;5054877;28;19963;-22
2023/08/29 16:00:28;;;;;;;;;;;;;;;;;;5054948;28;19917;-22
2023/08/29 16:02:54;;;;;;;;;;;;;;;;;;5053904;28;19981;-23
2023/08/29 16:05:20;;;;;;;;;;;;;;;;;;5054678;28;19921;-24
2023/08/29 16:07:46;;;;;;;;;;;;;;;;;;5055100;28;19920;-20
2023/08/29 16:10:14;;;;;;;;;;;;;;;;;;5054943;28;20301;-20
2023/08/29 16:12:40;;;;;;;;;;;;;;;;;;5054902;28;19909;-19
2023/08/29 16:15:06;;;;;;;;;;;;;;;;;;5054632;28;20256;-21
2023/08/29 16:17:35;;;;;;;;;;;;;;;;;;5054597;28;19928;-21
2023/08/29 16:20:03;;;;;;;;;;;;;;;;;;5054643;28;20298;-21
2023/08/29 16:22:29;;;;;;;;;;;;;;;;;;5054650;28;19913;-21
2023/08/29 16:24:55;;;;;;;;;;;;;;;;;;5054024;28;19920;-22
2023/08/29 16:27:21;;;;;;;;;;;;;;;;;;5053466;28;19915;-21
2023/08/29 16:29:47;;;;;;;;;;;;;;;;;;5054576;28;19974;-20
2023/08/29 16:32:13;;;;;;;;;;;;;;;;;;5053258;28;19941;-20
2023/08/29 16:34:38;;;;;;;;;;;;;;;;;;5054408;28;19973;-21
2023/08/29 16:37:04;;;;;;;;;;;;;;;;;;5054280;28;19908;-22